Solitude, Indiana
Current Conditions -  °F | °C
As of 3:35 AM on Saturday 20 Dec 2014 (Local Time) from KCUL Reporting Station
Overcast Overcast  
Wind Chill: 34°   Ceiling: 5500
Heat Index: 34°   Visibility: 7mi
Dew Point: 30°   Wind: 3mph
Humidity: 84%   Direction: 60°ENE
Pressure: 30.27"   Gusts: NA
Location:  37.9469°N, 87.9016°W
Report Text: KCUL 200935Z AUTO 06003KT 7SM OVC055 01/M01 A3027 RMK AO2 T00111013
Loading
Personal Weather Stations






























Interactive Weather Map New forecast layout! Learn more

10-Day Weather Forecast

Advertisements
Track Severe Weather on mobile